sensor_id;sensor_type;location;lat;lon;timestamp;temperature;humidity
53208;DHT22;39093;52.788;6.940;2023-06-26T00:00:53;24.00;91.00
53208;DHT22;39093;52.788;6.940;2023-06-26T00:03:20;24.00;90.80
53208;DHT22;39093;52.788;6.940;2023-06-26T00:05:47;23.90;91.10
53208;DHT22;39093;52.788;6.940;2023-06-26T00:08:14;23.90;91.00
53208;DHT22;39093;52.788;6.940;2023-06-26T00:10:41;23.90;91.20
53208;DHT22;39093;52.788;6.940;2023-06-26T00:13:08;23.90;91.50
53208;DHT22;39093;52.788;6.940;2023-06-26T00:15:38;23.80;91.30
53208;DHT22;39093;52.788;6.940;2023-06-26T00:18:06;23.80;91.50
53208;DHT22;39093;52.788;6.940;2023-06-26T00:20:33;23.80;91.50
53208;DHT22;39093;52.788;6.940;2023-06-26T00:23:00;23.80;91.30
53208;DHT22;39093;52.788;6.940;2023-06-26T00:25:28;23.80;91.20
53208;DHT22;39093;52.788;6.940;2023-06-26T00:27:54;23.70;91.30
53208;DHT22;39093;52.788;6.940;2023-06-26T00:30:21;23.70;91.30
53208;DHT22;39093;52.788;6.940;2023-06-26T00:32:48;23.70;91.40
53208;DHT22;39093;52.788;6.940;2023-06-26T00:35:15;23.70;91.50
53208;DHT22;39093;52.788;6.940;2023-06-26T00:37:42;23.70;91.30
53208;DHT22;39093;52.788;6.940;2023-06-26T00:40:09;23.60;91.40
53208;DHT22;39093;52.788;6.940;2023-06-26T00:42:36;23.60;91.50
53208;DHT22;39093;52.788;6.940;2023-06-26T00:45:03;23.60;91.80
53208;DHT22;39093;52.788;6.940;2023-06-26T00:47:33;23.60;91.50
53208;DHT22;39093;52.788;6.940;2023-06-26T00:50:00;23.50;91.50
53208;DHT22;39093;52.788;6.940;2023-06-26T00:52:33;23.50;91.70
53208;DHT22;39093;52.788;6.940;2023-06-26T00:55:00;23.50;91.80
53208;DHT22;39093;52.788;6.940;2023-06-26T00:57:27;23.50;91.90
53208;DHT22;39093;52.788;6.940;2023-06-26T00:59:54;23.50;91.60
53208;DHT22;39093;52.788;6.940;2023-06-26T01:02:21;23.50;91.60
53208;DHT22;39093;52.788;6.940;2023-06-26T01:04:51;23.50;91.60
53208;DHT22;39093;52.788;6.940;2023-06-26T01:07:19;23.40;91.90
53208;DHT22;39093;52.788;6.940;2023-06-26T01:09:48;23.40;91.90
53208;DHT22;39093;52.788;6.940;2023-06-26T01:12:15;23.40;92.00
53208;DHT22;39093;52.788;6.940;2023-06-26T01:14:42;23.40;92.00
53208;DHT22;39093;52.788;6.940;2023-06-26T01:17:10;23.30;92.00
53208;DHT22;39093;52.788;6.940;2023-06-26T01:19:42;23.40;92.30
53208;DHT22;39093;52.788;6.940;2023-06-26T01:22:24;23.30;92.20
53208;DHT22;39093;52.788;6.940;2023-06-26T01:25:11;23.30;92.30
53208;DHT22;39093;52.788;6.940;2023-06-26T01:27:40;23.30;92.30
53208;DHT22;39093;52.788;6.940;2023-06-26T01:30:09;23.20;92.40
53208;DHT22;39093;52.788;6.940;2023-06-26T01:32:37;23.20;92.50
53208;DHT22;39093;52.788;6.940;2023-06-26T01:35:06;23.20;92.50
53208;DHT22;39093;52.788;6.940;2023-06-26T01:37:34;23.20;92.70
53208;DHT22;39093;52.788;6.940;2023-06-26T01:40:01;23.20;92.80
53208;DHT22;39093;52.788;6.940;2023-06-26T01:42:28;23.10;92.70
53208;DHT22;39093;52.788;6.940;2023-06-26T01:44:55;23.10;92.70
53208;DHT22;39093;52.788;6.940;2023-06-26T01:47:24;23.10;92.90
53208;DHT22;39093;52.788;6.940;2023-06-26T01:50:05;23.10;93.00
53208;DHT22;39093;52.788;6.940;2023-06-26T01:52:46;23.00;93.20
53208;DHT22;39093;52.788;6.940;2023-06-26T01:55:38;23.00;93.10
53208;DHT22;39093;52.788;6.940;2023-06-26T01:58:06;23.00;93.40
53208;DHT22;39093;52.788;6.940;2023-06-26T02:00:34;22.90;93.30
53208;DHT22;39093;52.788;6.940;2023-06-26T02:03:03;22.90;93.40
53208;DHT22;39093;52.788;6.940;2023-06-26T02:05:32;22.90;93.60
53208;DHT22;39093;52.788;6.940;2023-06-26T02:07:59;22.90;93.60
53208;DHT22;39093;52.788;6.940;2023-06-26T02:10:30;22.80;93.60
53208;DHT22;39093;52.788;6.940;2023-06-26T02:12:57;22.70;93.70
53208;DHT22;39093;52.788;6.940;2023-06-26T02:15:24;22.80;93.70
53208;DHT22;39093;52.788;6.940;2023-06-26T02:17:51;22.70;93.90
53208;DHT22;39093;52.788;6.940;2023-06-26T02:20:18;22.70;94.20
53208;DHT22;39093;52.788;6.940;2023-06-26T02:22:44;22.70;94.20
53208;DHT22;39093;52.788;6.940;2023-06-26T02:25:12;22.60;94.30
53208;DHT22;39093;52.788;6.940;2023-06-26T02:27:39;22.60;94.20
53208;DHT22;39093;52.788;6.940;2023-06-26T02:30:07;22.60;94.30
53208;DHT22;39093;52.788;6.940;2023-06-26T02:32:34;22.60;94.70
53208;DHT22;39093;52.788;6.940;2023-06-26T02:35:02;22.60;94.60
53208;DHT22;39093;52.788;6.940;2023-06-26T02:37:29;22.50;94.70
53208;DHT22;39093;52.788;6.940;2023-06-26T02:39:56;22.50;94.90
53208;DHT22;39093;52.788;6.940;2023-06-26T02:42:24;22.50;95.00
53208;DHT22;39093;52.788;6.940;2023-06-26T02:44:51;22.50;95.20
53208;DHT22;39093;52.788;6.940;2023-06-26T02:47:18;22.40;95.20
53208;DHT22;39093;52.788;6.940;2023-06-26T02:49:45;22.40;95.40
53208;DHT22;39093;52.788;6.940;2023-06-26T02:52:12;22.40;95.20
53208;DHT22;39093;52.788;6.940;2023-06-26T02:54:39;22.40;95.30
53208;DHT22;39093;52.788;6.940;2023-06-26T02:57:06;22.30;95.30
53208;DHT22;39093;52.788;6.940;2023-06-26T02:59:33;22.30;95.40
53208;DHT22;39093;52.788;6.940;2023-06-26T03:02:01;22.20;95.40
53208;DHT22;39093;52.788;6.940;2023-06-26T03:04:28;22.20;95.60
53208;DHT22;39093;52.788;6.940;2023-06-26T03:06:57;22.20;95.70
53208;DHT22;39093;52.788;6.940;2023-06-26T03:09:25;22.10;95.80
53208;DHT22;39093;52.788;6.940;2023-06-26T03:11:52;22.10;96.10
53208;DHT22;39093;52.788;6.940;2023-06-26T03:14:19;22.00;96.20
53208;DHT22;39093;52.788;6.940;2023-06-26T03:16:46;22.00;96.30
53208;DHT22;39093;52.788;6.940;2023-06-26T03:19:16;21.90;96.30
53208;DHT22;39093;52.788;6.940;2023-06-26T03:21:43;21.90;96.70
53208;DHT22;39093;52.788;6.940;2023-06-26T03:24:13;21.80;96.80
53208;DHT22;39093;52.788;6.940;2023-06-26T03:26:40;21.80;97.00
53208;DHT22;39093;52.788;6.940;2023-06-26T03:29:08;21.80;97.10
53208;DHT22;39093;52.788;6.940;2023-06-26T03:31:35;21.80;97.30
53208;DHT22;39093;52.788;6.940;2023-06-26T03:34:02;21.80;97.40
53208;DHT22;39093;52.788;6.940;2023-06-26T03:36:30;21.70;97.60
53208;DHT22;39093;52.788;6.940;2023-06-26T03:38:57;21.70;97.70
53208;DHT22;39093;52.788;6.940;2023-06-26T03:41:24;21.70;98.20
53208;DHT22;39093;52.788;6.940;2023-06-26T03:43:51;21.60;98.40
53208;DHT22;39093;52.788;6.940;2023-06-26T03:46:19;21.60;98.40
53208;DHT22;39093;52.788;6.940;2023-06-26T03:48:46;21.70;98.60
53208;DHT22;39093;52.788;6.940;2023-06-26T03:51:12;21.60;98.80
53208;DHT22;39093;52.788;6.940;2023-06-26T03:53:39;21.70;98.80
53208;DHT22;39093;52.788;6.940;2023-06-26T03:56:06;21.60;98.60
53208;DHT22;39093;52.788;6.940;2023-06-26T03:58:33;21.70;98.80
53208;DHT22;39093;52.788;6.940;2023-06-26T04:01:00;21.70;98.70
53208;DHT22;39093;52.788;6.940;2023-06-26T04:03:27;21.70;98.90
53208;DHT22;39093;52.788;6.940;2023-06-26T04:05:54;21.70;98.90
53208;DHT22;39093;52.788;6.940;2023-06-26T04:08:23;21.80;98.90
53208;DHT22;39093;52.788;6.940;2023-06-26T04:10:51;21.80;98.70
53208;DHT22;39093;52.788;6.940;2023-06-26T04:13:18;21.80;98.90
53208;DHT22;39093;52.788;6.940;2023-06-26T04:15:45;21.90;98.70
53208;DHT22;39093;52.788;6.940;2023-06-26T04:18:12;21.90;98.40
53208;DHT22;39093;52.788;6.940;2023-06-26T04:20:42;21.90;98.30
53208;DHT22;39093;52.788;6.940;2023-06-26T04:23:31;22.00;98.60
53208;DHT22;39093;52.788;6.940;2023-06-26T04:26:00;22.00;98.60
53208;DHT22;39093;52.788;6.940;2023-06-26T04:28:32;22.00;98.90
53208;DHT22;39093;52.788;6.940;2023-06-26T04:31:00;22.00;98.50
53208;DHT22;39093;52.788;6.940;2023-06-26T04:33:27;22.00;98.50
53208;DHT22;39093;52.788;6.940;2023-06-26T04:35:54;22.00;98.60
53208;DHT22;39093;52.788;6.940;2023-06-26T04:38:23;22.00;98.60
53208;DHT22;39093;52.788;6.940;2023-06-26T04:40:52;22.10;98.40
53208;DHT22;39093;52.788;6.940;2023-06-26T04:43:19;22.10;98.40
53208;DHT22;39093;52.788;6.940;2023-06-26T04:45:46;22.00;98.80
53208;DHT22;39093;52.788;6.940;2023-06-26T04:48:13;22.10;98.90
53208;DHT22;39093;52.788;6.940;2023-06-26T04:50:42;22.10;98.80
53208;DHT22;39093;52.788;6.940;2023-06-26T04:53:09;22.10;98.90
53208;DHT22;39093;52.788;6.940;2023-06-26T04:55:36;22.10;98.90
53208;DHT22;39093;52.788;6.940;2023-06-26T04:58:06;22.10;99.00
53208;DHT22;39093;52.788;6.940;2023-06-26T05:00:34;22.10;99.30
53208;DHT22;39093;52.788;6.940;2023-06-26T05:03:03;22.10;99.30
53208;DHT22;39093;52.788;6.940;2023-06-26T05:05:30;22.10;99.30
53208;DHT22;39093;52.788;6.940;2023-06-26T05:07:57;22.10;99.70
53208;DHT22;39093;52.788;6.940;2023-06-26T05:10:24;22.10;99.60
53208;DHT22;39093;52.788;6.940;2023-06-26T05:12:51;22.10;99.60
53208;DHT22;39093;52.788;6.940;2023-06-26T05:15:18;22.10;99.90
53208;DHT22;39093;52.788;6.940;2023-06-26T05:17:45;22.10;99.90
53208;DHT22;39093;52.788;6.940;2023-06-26T05:20:13;22.10;99.90
53208;DHT22;39093;52.788;6.940;2023-06-26T05:22:40;22.20;99.90
53208;DHT22;39093;52.788;6.940;2023-06-26T05:25:09;22.30;99.90
53208;DHT22;39093;52.788;6.940;2023-06-26T05:27:37;22.30;99.90
53208;DHT22;39093;52.788;6.940;2023-06-26T05:30:04;22.40;99.90
53208;DHT22;39093;52.788;6.940;2023-06-26T05:32:34;22.40;99.90
53208;DHT22;39093;52.788;6.940;2023-06-26T05:35:02;22.50;99.90
53208;DHT22;39093;52.788;6.940;2023-06-26T05:37:33;22.40;99.90
53208;DHT22;39093;52.788;6.940;2023-06-26T05:40:01;22.40;99.90
53208;DHT22;39093;52.788;6.940;2023-06-26T05:42:30;22.40;99.90
53208;DHT22;39093;52.788;6.940;2023-06-26T05:44:57;22.30;99.90
53208;DHT22;39093;52.788;6.940;2023-06-26T05:47:24;22.30;99.90
53208;DHT22;39093;52.788;6.940;2023-06-26T05:49:51;22.20;99.90
53208;DHT22;39093;52.788;6.940;2023-06-26T05:52:18;22.20;99.90
53208;DHT22;39093;52.788;6.940;2023-06-26T05:54:46;22.30;99.90
53208;DHT22;39093;52.788;6.940;2023-06-26T05:57:13;22.30;99.90
53208;DHT22;39093;52.788;6.940;2023-06-26T05:59:43;22.30;99.90
53208;DHT22;39093;52.788;6.940;2023-06-26T06:02:11;22.30;99.90
53208;DHT22;39093;52.788;6.940;2023-06-26T06:04:38;22.30;99.90
53208;DHT22;39093;52.788;6.940;2023-06-26T06:07:05;22.30;99.90
53208;DHT22;39093;52.788;6.940;2023-06-26T06:09:32;22.20;99.90
53208;DHT22;39093;52.788;6.940;2023-06-26T06:11:59;22.20;99.90
53208;DHT22;39093;52.788;6.940;2023-06-26T06:14:28;22.20;99.90
53208;DHT22;39093;52.788;6.940;2023-06-26T06:16:55;22.10;99.90
53208;DHT22;39093;52.788;6.940;2023-06-26T06:19:22;22.10;99.90
53208;DHT22;39093;52.788;6.940;2023-06-26T06:21:49;22.10;99.90
53208;DHT22;39093;52.788;6.940;2023-06-26T06:24:16;22.10;99.90
53208;DHT22;39093;52.788;6.940;2023-06-26T06:26:43;22.20;99.90
53208;DHT22;39093;52.788;6.940;2023-06-26T06:29:10;22.20;99.90
53208;DHT22;39093;52.788;6.940;2023-06-26T06:31:37;22.30;99.90
53208;DHT22;39093;52.788;6.940;2023-06-26T06:34:04;22.30;99.90
53208;DHT22;39093;52.788;6.940;2023-06-26T06:36:31;22.30;99.90
53208;DHT22;39093;52.788;6.940;2023-06-26T06:38:58;22.40;99.90
53208;DHT22;39093;52.788;6.940;2023-06-26T06:41:25;22.50;99.90
53208;DHT22;39093;52.788;6.940;2023-06-26T06:43:52;22.50;99.90
53208;DHT22;39093;52.788;6.940;2023-06-26T06:46:18;22.60;99.90
53208;DHT22;39093;52.788;6.940;2023-06-26T06:48:45;22.60;99.90
53208;DHT22;39093;52.788;6.940;2023-06-26T06:51:13;22.60;99.90
53208;DHT22;39093;52.788;6.940;2023-06-26T06:53:40;22.50;99.90
53208;DHT22;39093;52.788;6.940;2023-06-26T06:56:07;22.50;99.90
53208;DHT22;39093;52.788;6.940;2023-06-26T06:58:34;22.60;99.90
53208;DHT22;39093;52.788;6.940;2023-06-26T07:01:02;22.50;99.90
53208;DHT22;39093;52.788;6.940;2023-06-26T07:03:31;22.40;99.90
53208;DHT22;39093;52.788;6.940;2023-06-26T07:05:58;22.40;99.90
53208;DHT22;39093;52.788;6.940;2023-06-26T07:08:25;22.50;99.90
53208;DHT22;39093;52.788;6.940;2023-06-26T07:10:52;22.80;99.80
53208;DHT22;39093;52.788;6.940;2023-06-26T07:13:19;23.10;98.50
53208;DHT22;39093;52.788;6.940;2023-06-26T07:15:46;23.30;97.90
53208;DHT22;39093;52.788;6.940;2023-06-26T07:18:14;23.30;97.30
53208;DHT22;39093;52.788;6.940;2023-06-26T07:20:41;23.40;97.30
53208;DHT22;39093;52.788;6.940;2023-06-26T07:23:09;23.60;97.50
53208;DHT22;39093;52.788;6.940;2023-06-26T07:25:36;23.80;96.50
53208;DHT22;39093;52.788;6.940;2023-06-26T07:28:10;23.90;96.90
53208;DHT22;39093;52.788;6.940;2023-06-26T07:30:37;24.10;95.80
53208;DHT22;39093;52.788;6.940;2023-06-26T07:33:05;24.20;95.00
53208;DHT22;39093;52.788;6.940;2023-06-26T07:35:33;24.30;95.00
53208;DHT22;39093;52.788;6.940;2023-06-26T07:38:00;24.40;94.40
53208;DHT22;39093;52.788;6.940;2023-06-26T07:40:30;24.60;94.70
53208;DHT22;39093;52.788;6.940;2023-06-26T07:42:57;24.70;93.60
53208;DHT22;39093;52.788;6.940;2023-06-26T07:45:25;24.80;93.20
53208;DHT22;39093;52.788;6.940;2023-06-26T07:47:53;24.80;92.70
53208;DHT22;39093;52.788;6.940;2023-06-26T07:50:20;24.70;92.60
53208;DHT22;39093;52.788;6.940;2023-06-26T07:52:49;24.60;93.20
53208;DHT22;39093;52.788;6.940;2023-06-26T07:55:16;24.60;93.90
53208;DHT22;39093;52.788;6.940;2023-06-26T07:57:43;24.60;93.90
53208;DHT22;39093;52.788;6.940;2023-06-26T08:00:12;24.70;92.90
53208;DHT22;39093;52.788;6.940;2023-06-26T08:02:39;24.70;92.30
53208;DHT22;39093;52.788;6.940;2023-06-26T08:05:06;24.60;93.30
53208;DHT22;39093;52.788;6.940;2023-06-26T08:07:34;24.70;93.30
53208;DHT22;39093;52.788;6.940;2023-06-26T08:10:01;24.80;93.70
53208;DHT22;39093;52.788;6.940;2023-06-26T08:12:28;24.90;93.40
53208;DHT22;39093;52.788;6.940;2023-06-26T08:14:54;25.00;93.00
53208;DHT22;39093;52.788;6.940;2023-06-26T08:17:21;25.20;92.30
53208;DHT22;39093;52.788;6.940;2023-06-26T08:19:48;25.10;92.50
53208;DHT22;39093;52.788;6.940;2023-06-26T08:22:15;25.00;92.70
53208;DHT22;39093;52.788;6.940;2023-06-26T08:24:42;25.00;92.90
53208;DHT22;39093;52.788;6.940;2023-06-26T08:27:09;25.00;94.40
53208;DHT22;39093;52.788;6.940;2023-06-26T08:29:38;25.00;93.40
53208;DHT22;39093;52.788;6.940;2023-06-26T08:32:05;25.10;93.80
53208;DHT22;39093;52.788;6.940;2023-06-26T08:34:32;25.20;93.30
53208;DHT22;39093;52.788;6.940;2023-06-26T08:36:59;25.20;92.80
53208;DHT22;39093;52.788;6.940;2023-06-26T08:39:26;25.10;92.40
53208;DHT22;39093;52.788;6.940;2023-06-26T08:41:53;24.90;92.70
53208;DHT22;39093;52.788;6.940;2023-06-26T08:44:20;24.90;92.70
53208;DHT22;39093;52.788;6.940;2023-06-26T08:46:51;24.90;92.40
53208;DHT22;39093;52.788;6.940;2023-06-26T08:49:21;24.70;92.00
53208;DHT22;39093;52.788;6.940;2023-06-26T08:51:57;24.50;91.60
53208;DHT22;39093;52.788;6.940;2023-06-26T08:54:30;24.20;91.60
53208;DHT22;39093;52.788;6.940;2023-06-26T08:57:00;24.10;92.40
53208;DHT22;39093;52.788;6.940;2023-06-26T08:59:27;24.20;91.80
53208;DHT22;39093;52.788;6.940;2023-06-26T09:01:55;24.30;92.10
53208;DHT22;39093;52.788;6.940;2023-06-26T09:04:22;24.40;92.20
53208;DHT22;39093;52.788;6.940;2023-06-26T09:06:49;24.60;92.10
53208;DHT22;39093;52.788;6.940;2023-06-26T09:09:16;24.70;91.90
53208;DHT22;39093;52.788;6.940;2023-06-26T09:11:43;24.60;91.70
53208;DHT22;39093;52.788;6.940;2023-06-26T09:14:10;24.60;92.10
53208;DHT22;39093;52.788;6.940;2023-06-26T09:16:41;24.70;91.90
53208;DHT22;39093;52.788;6.940;2023-06-26T09:19:10;24.70;90.80
53208;DHT22;39093;52.788;6.940;2023-06-26T09:21:43;24.60;91.10
53208;DHT22;39093;52.788;6.940;2023-06-26T09:24:10;24.50;91.10
53208;DHT22;39093;52.788;6.940;2023-06-26T09:26:38;24.30;91.30
53208;DHT22;39093;52.788;6.940;2023-06-26T09:29:07;24.30;91.40
53208;DHT22;39093;52.788;6.940;2023-06-26T09:31:38;24.30;91.30
53208;DHT22;39093;52.788;6.940;2023-06-26T09:34:09;24.30;91.70
53208;DHT22;39093;52.788;6.940;2023-06-26T09:36:37;24.20;92.00
53208;DHT22;39093;52.788;6.940;2023-06-26T09:39:08;24.10;91.80
53208;DHT22;39093;52.788;6.940;2023-06-26T09:41:40;23.90;91.60
53208;DHT22;39093;52.788;6.940;2023-06-26T09:44:11;23.90;92.10
53208;DHT22;39093;52.788;6.940;2023-06-26T09:46:39;24.00;92.60
53208;DHT22;39093;52.788;6.940;2023-06-26T09:49:07;24.30;91.90
53208;DHT22;39093;52.788;6.940;2023-06-26T09:51:36;24.50;91.70
53208;DHT22;39093;52.788;6.940;2023-06-26T09:54:04;24.60;91.80
53208;DHT22;39093;52.788;6.940;2023-06-26T09:56:32;24.60;90.90
53208;DHT22;39093;52.788;6.940;2023-06-26T09:59:05;24.50;91.40
53208;DHT22;39093;52.788;6.940;2023-06-26T10:01:33;24.40;91.60
53208;DHT22;39093;52.788;6.940;2023-06-26T10:04:00;24.50;91.40
53208;DHT22;39093;52.788;6.940;2023-06-26T10:06:42;24.60;91.60
53208;DHT22;39093;52.788;6.940;2023-06-26T10:09:10;24.80;91.70
53208;DHT22;39093;52.788;6.940;2023-06-26T10:11:51;24.90;91.20
53208;DHT22;39093;52.788;6.940;2023-06-26T10:14:21;24.80;89.90
53208;DHT22;39093;52.788;6.940;2023-06-26T10:16:49;24.70;89.60
53208;DHT22;39093;52.788;6.940;2023-06-26T10:19:19;24.60;90.20
53208;DHT22;39093;52.788;6.940;2023-06-26T10:21:55;24.70;90.50
53208;DHT22;39093;52.788;6.940;2023-06-26T10:24:23;24.80;91.00
53208;DHT22;39093;52.788;6.940;2023-06-26T10:26:54;24.80;90.20
53208;DHT22;39093;52.788;6.940;2023-06-26T10:29:23;24.70;90.20
53208;DHT22;39093;52.788;6.940;2023-06-26T10:31:54;24.60;90.00
53208;DHT22;39093;52.788;6.940;2023-06-26T10:34:23;24.70;88.40
53208;DHT22;39093;52.788;6.940;2023-06-26T10:37:01;25.00;86.70
53208;DHT22;39093;52.788;6.940;2023-06-26T10:39:49;25.20;85.30
53208;DHT22;39093;52.788;6.940;2023-06-26T10:42:17;25.10;84.90
53208;DHT22;39093;52.788;6.940;2023-06-26T10:44:47;24.90;83.60
53208;DHT22;39093;52.788;6.940;2023-06-26T10:47:31;24.70;85.00
53208;DHT22;39093;52.788;6.940;2023-06-26T10:50:26;24.60;83.40
53208;DHT22;39093;52.788;6.940;2023-06-26T10:56:02;24.90;86.60
53208;DHT22;39093;52.788;6.940;2023-06-26T11:04:00;25.60;85.90
53208;DHT22;39093;52.788;6.940;2023-06-26T11:06:32;25.90;87.70
53208;DHT22;39093;52.788;6.940;2023-06-26T11:14:24;26.00;82.80
53208;DHT22;39093;52.788;6.940;2023-06-26T11:16:51;25.90;84.40
53208;DHT22;39093;52.788;6.940;2023-06-26T11:19:19;25.60;80.50
53208;DHT22;39093;52.788;6.940;2023-06-26T11:21:50;25.70;79.90
53208;DHT22;39093;52.788;6.940;2023-06-26T11:24:18;25.70;79.90
53208;DHT22;39093;52.788;6.940;2023-06-26T11:26:45;26.00;81.00
53208;DHT22;39093;52.788;6.940;2023-06-26T11:29:13;26.30;82.30
53208;DHT22;39093;52.788;6.940;2023-06-26T11:31:42;26.20;81.60
53208;DHT22;39093;52.788;6.940;2023-06-26T11:34:13;25.80;82.70
53208;DHT22;39093;52.788;6.940;2023-06-26T11:36:42;25.50;81.80
53208;DHT22;39093;52.788;6.940;2023-06-26T11:39:10;25.40;82.00
53208;DHT22;39093;52.788;6.940;2023-06-26T11:41:39;25.50;83.10
53208;DHT22;39093;52.788;6.940;2023-06-26T11:44:08;25.90;84.20
53208;DHT22;39093;52.788;6.940;2023-06-26T11:46:38;26.30;81.90
53208;DHT22;39093;52.788;6.940;2023-06-26T11:49:06;26.30;78.40
53208;DHT22;39093;52.788;6.940;2023-06-26T11:51:34;26.20;78.70
53208;DHT22;39093;52.788;6.940;2023-06-26T11:54:03;26.10;77.60
53208;DHT22;39093;52.788;6.940;2023-06-26T11:56:31;26.10;77.00
53208;DHT22;39093;52.788;6.940;2023-06-26T11:59:02;25.70;78.00
53208;DHT22;39093;52.788;6.940;2023-06-26T12:01:38;25.90;77.90
53208;DHT22;39093;52.788;6.940;2023-06-26T12:04:10;26.10;78.20
53208;DHT22;39093;52.788;6.940;2023-06-26T12:06:39;26.40;76.70
53208;DHT22;39093;52.788;6.940;2023-06-26T12:09:09;26.40;77.80
53208;DHT22;39093;52.788;6.940;2023-06-26T12:11:43;26.30;79.90
53208;DHT22;39093;52.788;6.940;2023-06-26T12:14:11;26.40;81.00
53208;DHT22;39093;52.788;6.940;2023-06-26T12:16:39;26.80;80.10
53208;DHT22;39093;52.788;6.940;2023-06-26T12:19:08;27.20;80.50
53208;DHT22;39093;52.788;6.940;2023-06-26T12:24:08;26.80;77.40
53208;DHT22;39093;52.788;6.940;2023-06-26T12:26:36;26.40;78.60
53208;DHT22;39093;52.788;6.940;2023-06-26T12:29:04;26.30;79.40
53208;DHT22;39093;52.788;6.940;2023-06-26T12:31:31;26.40;79.10
53208;DHT22;39093;52.788;6.940;2023-06-26T12:33:59;26.60;78.60
53208;DHT22;39093;52.788;6.940;2023-06-26T12:36:26;26.60;78.40
53208;DHT22;39093;52.788;6.940;2023-06-26T12:38:54;26.40;79.20
53208;DHT22;39093;52.788;6.940;2023-06-26T12:41:24;26.40;77.80
53208;DHT22;39093;52.788;6.940;2023-06-26T12:43:56;26.60;79.20
53208;DHT22;39093;52.788;6.940;2023-06-26T12:46:33;26.60;76.80
53208;DHT22;39093;52.788;6.940;2023-06-26T12:49:00;26.40;77.70
53208;DHT22;39093;52.788;6.940;2023-06-26T12:51:27;26.30;77.00
53208;DHT22;39093;52.788;6.940;2023-06-26T12:53:54;26.40;77.10
53208;DHT22;39093;52.788;6.940;2023-06-26T12:56:21;26.50;77.20
53208;DHT22;39093;52.788;6.940;2023-06-26T12:58:48;26.30;75.70
53208;DHT22;39093;52.788;6.940;2023-06-26T13:01:15;26.70;76.30
53208;DHT22;39093;52.788;6.940;2023-06-26T13:03:42;27.00;72.10
53208;DHT22;39093;52.788;6.940;2023-06-26T13:06:09;27.20;73.30
53208;DHT22;39093;52.788;6.940;2023-06-26T13:08:36;27.30;71.40
53208;DHT22;39093;52.788;6.940;2023-06-26T13:11:03;27.50;68.70
53208;DHT22;39093;52.788;6.940;2023-06-26T13:13:31;27.70;70.70
53208;DHT22;39093;52.788;6.940;2023-06-26T13:15:58;27.80;68.10
53208;DHT22;39093;52.788;6.940;2023-06-26T13:18:25;27.50;70.00
53208;DHT22;39093;52.788;6.940;2023-06-26T13:20:52;27.30;74.30
53208;DHT22;39093;52.788;6.940;2023-06-26T13:23:19;27.30;75.50
53208;DHT22;39093;52.788;6.940;2023-06-26T13:25:46;27.10;74.30
53208;DHT22;39093;52.788;6.940;2023-06-26T13:28:13;26.90;75.10
53208;DHT22;39093;52.788;6.940;2023-06-26T13:30:40;26.80;76.10
53208;DHT22;39093;52.788;6.940;2023-06-26T13:33:07;26.70;75.20
53208;DHT22;39093;52.788;6.940;2023-06-26T13:35:34;26.30;75.70
53208;DHT22;39093;52.788;6.940;2023-06-26T13:38:01;26.10;76.40
53208;DHT22;39093;52.788;6.940;2023-06-26T13:40:28;26.40;77.40
53208;DHT22;39093;52.788;6.940;2023-06-26T13:42:55;26.40;76.60
53208;DHT22;39093;52.788;6.940;2023-06-26T13:45:22;26.00;75.40
53208;DHT22;39093;52.788;6.940;2023-06-26T13:47:57;26.00;76.30
53208;DHT22;39093;52.788;6.940;2023-06-26T13:50:24;25.80;76.60
53208;DHT22;39093;52.788;6.940;2023-06-26T13:52:51;25.40;75.10
53208;DHT22;39093;52.788;6.940;2023-06-26T13:55:18;25.30;77.40
53208;DHT22;39093;52.788;6.940;2023-06-26T13:57:45;25.20;75.50
53208;DHT22;39093;52.788;6.940;2023-06-26T14:00:12;25.30;76.80
53208;DHT22;39093;52.788;6.940;2023-06-26T14:02:39;25.30;75.80
53208;DHT22;39093;52.788;6.940;2023-06-26T14:05:07;25.70;75.90
53208;DHT22;39093;52.788;6.940;2023-06-26T14:07:34;26.00;74.50
53208;DHT22;39093;52.788;6.940;2023-06-26T14:10:01;26.20;74.00
53208;DHT22;39093;52.788;6.940;2023-06-26T14:12:28;26.50;73.80
53208;DHT22;39093;52.788;6.940;2023-06-26T14:14:55;26.50;74.60
53208;DHT22;39093;52.788;6.940;2023-06-26T14:17:22;26.80;74.60
53208;DHT22;39093;52.788;6.940;2023-06-26T14:19:53;26.80;73.00
53208;DHT22;39093;52.788;6.940;2023-06-26T14:22:20;26.80;73.10
53208;DHT22;39093;52.788;6.940;2023-06-26T14:24:48;26.70;74.30
53208;DHT22;39093;52.788;6.940;2023-06-26T14:27:16;26.80;73.00
53208;DHT22;39093;52.788;6.940;2023-06-26T14:29:42;27.20;73.60
53208;DHT22;39093;52.788;6.940;2023-06-26T14:32:10;27.40;74.00
53208;DHT22;39093;52.788;6.940;2023-06-26T14:34:39;27.60;72.00
53208;DHT22;39093;52.788;6.940;2023-06-26T14:37:06;27.50;72.90
53208;DHT22;39093;52.788;6.940;2023-06-26T14:39:33;27.50;73.70
53208;DHT22;39093;52.788;6.940;2023-06-26T14:42:00;27.70;73.90
53208;DHT22;39093;52.788;6.940;2023-06-26T14:44:28;27.60;74.70
53208;DHT22;39093;52.788;6.940;2023-06-26T14:46:55;27.70;72.50
53208;DHT22;39093;52.788;6.940;2023-06-26T14:49:22;27.30;73.50
53208;DHT22;39093;52.788;6.940;2023-06-26T14:51:49;26.90;74.20
53208;DHT22;39093;52.788;6.940;2023-06-26T14:54:16;26.50;74.20
53208;DHT22;39093;52.788;6.940;2023-06-26T14:56:43;26.20;74.00
53208;DHT22;39093;52.788;6.940;2023-06-26T14:59:12;25.80;75.00
53208;DHT22;39093;52.788;6.940;2023-06-26T15:01:39;25.60;75.50
53208;DHT22;39093;52.788;6.940;2023-06-26T15:04:06;25.40;76.50
53208;DHT22;39093;52.788;6.940;2023-06-26T15:06:34;25.10;76.80
53208;DHT22;39093;52.788;6.940;2023-06-26T15:09:02;24.90;76.90
53208;DHT22;39093;52.788;6.940;2023-06-26T15:11:29;25.00;77.70
53208;DHT22;39093;52.788;6.940;2023-06-26T15:13:58;25.20;76.60
53208;DHT22;39093;52.788;6.940;2023-06-26T15:16:25;25.70;74.80
53208;DHT22;39093;52.788;6.940;2023-06-26T15:18:52;26.10;75.30
53208;DHT22;39093;52.788;6.940;2023-06-26T15:21:19;26.50;73.80
53208;DHT22;39093;52.788;6.940;2023-06-26T15:23:47;26.50;71.50
53208;DHT22;39093;52.788;6.940;2023-06-26T15:26:14;26.00;73.20
53208;DHT22;39093;52.788;6.940;2023-06-26T15:28:40;25.70;74.60
53208;DHT22;39093;52.788;6.940;2023-06-26T15:31:07;25.50;74.20
53208;DHT22;39093;52.788;6.940;2023-06-26T15:33:34;25.70;75.40
53208;DHT22;39093;52.788;6.940;2023-06-26T15:36:01;25.70;75.10
53208;DHT22;39093;52.788;6.940;2023-06-26T15:38:30;25.50;75.10
53208;DHT22;39093;52.788;6.940;2023-06-26T15:40:57;25.10;75.00
53208;DHT22;39093;52.788;6.940;2023-06-26T15:43:24;24.80;75.10
53208;DHT22;39093;52.788;6.940;2023-06-26T15:45:50;24.40;76.20
53208;DHT22;39093;52.788;6.940;2023-06-26T15:48:19;24.10;76.80
53208;DHT22;39093;52.788;6.940;2023-06-26T15:50:45;24.00;76.90
53208;DHT22;39093;52.788;6.940;2023-06-26T15:53:37;23.90;77.40